Time;durP1;ratioP1;P1;durP2;ratioP2;P2;SDS_P1;SDS_P2;PMS_P1;PMS_P2;Temp;Humidity;BMP_temperature;BMP_pressure;BME280_temperature;BME280_humidity;BME280_pressure;Samples;Min_cycle;Max_cycle;Signal;HPM_P1;HPM_P2
2023/07/16 00:00:59;;;;;;;8.87;7.27;;;20.70;99.90;;;;;;5031468;28;20458;-66
2023/07/16 00:03:26;;;;;;;9.47;8.50;;;20.70;99.90;;;;;;5031684;28;20544;-67
2023/07/16 00:05:53;;;;;;;9.60;8.70;;;20.70;99.90;;;;;;5031415;28;20454;-67
2023/07/16 00:08:20;;;;;;;9.77;8.77;;;20.60;99.90;;;;;;5031482;28;20965;-66
2023/07/16 00:10:48;;;;;;;9.07;8.17;;;20.50;99.90;;;;;;5031801;28;20457;-66
2023/07/16 00:13:15;;;;;;;10.67;9.70;;;20.50;99.90;;;;;;5031716;28;20469;-67
2023/07/16 00:15:41;;;;;;;10.80;8.87;;;20.50;99.90;;;;;;5031824;28;20455;-66
2023/07/16 00:18:08;;;;;;;13.60;9.60;;;20.50;99.90;;;;;;5030855;28;20563;-66
2023/07/16 00:20:35;;;;;;;10.07;9.00;;;20.50;99.90;;;;;;5031516;28;20445;-66
2023/07/16 00:23:02;;;;;;;17.33;10.40;;;20.50;99.90;;;;;;5031600;28;20481;-65
2023/07/16 00:25:29;;;;;;;10.10;9.20;;;20.50;99.90;;;;;;5031935;28;20453;-66
2023/07/16 00:27:58;;;;;;;10.10;8.97;;;20.50;99.90;;;;;;5031161;28;20934;-65
2023/07/16 00:30:25;;;;;;;11.27;9.63;;;20.50;99.90;;;;;;5030922;28;20445;-65
2023/07/16 00:32:52;;;;;;;10.73;9.57;;;20.40;99.90;;;;;;5031547;28;20549;-64
2023/07/16 00:35:18;;;;;;;11.70;10.60;;;20.40;99.90;;;;;;5031642;28;20484;-65
2023/07/16 00:37:46;;;;;;;12.03;10.93;;;20.40;99.90;;;;;;5031663;28;20457;-64
2023/07/16 00:40:13;;;;;;;11.17;10.30;;;20.40;99.90;;;;;;5024176;28;20477;-64
2023/07/16 00:42:40;;;;;;;10.40;9.50;;;20.50;99.90;;;;;;5031625;28;20506;-65
2023/07/16 00:45:14;;;;;;;10.30;9.40;;;20.50;99.90;;;;;;5031761;28;20459;-65
2023/07/16 00:47:42;;;;;;;8.70;8.00;;;20.50;99.90;;;;;;5030750;28;20445;-64
2023/07/16 00:50:10;;;;;;;8.73;8.03;;;20.50;99.90;;;;;;5031181;28;20452;-65
2023/07/16 00:52:37;;;;;;;8.80;7.93;;;20.60;99.90;;;;;;5031081;28;20478;-65
2023/07/16 00:55:05;;;;;;;9.13;8.30;;;20.50;99.90;;;;;;5031027;28;20544;-65
2023/07/16 00:57:33;;;;;;;6.87;6.37;;;20.60;99.90;;;;;;5030871;28;20454;-64
2023/07/16 01:00:00;;;;;;;7.93;7.27;;;20.50;99.90;;;;;;5030861;28;20446;-65
2023/07/16 01:02:28;;;;;;;7.83;7.07;;;20.50;99.90;;;;;;5030958;28;20558;-64
2023/07/16 01:04:55;;;;;;;8.30;6.83;;;20.50;99.90;;;;;;5031065;28;20871;-65
2023/07/16 01:07:26;;;;;;;12.03;7.40;;;20.40;99.90;;;;;;5030796;28;20878;-65
2023/07/16 01:09:55;;;;;;;9.30;8.60;;;20.40;99.90;;;;;;5025620;28;20447;-65
2023/07/16 01:12:23;;;;;;;11.37;8.70;;;20.40;99.90;;;;;;5035029;28;21007;-65
2023/07/16 01:14:51;;;;;;;9.50;8.10;;;20.40;99.90;;;;;;5030693;28;20448;-65
2023/07/16 01:17:18;;;;;;;7.50;6.80;;;20.50;99.90;;;;;;5034999;28;20451;-65
2023/07/16 01:19:46;;;;;;;8.10;7.40;;;20.40;99.90;;;;;;5035085;28;20888;-65
2023/07/16 01:22:28;;;;;;;7.80;7.20;;;20.40;99.90;;;;;;5033177;28;20484;-65
2023/07/16 01:25:09;;;;;;;7.60;7.00;;;20.40;99.90;;;;;;5019305;28;20463;-65
2023/07/16 01:27:59;;;;;;;7.80;7.10;;;20.50;99.90;;;;;;5035090;28;20849;-65
2023/07/16 01:30:28;;;;;;;8.57;7.77;;;20.50;99.90;;;;;;5034813;28;20450;-65
2023/07/16 01:32:57;;;;;;;6.67;6.17;;;20.50;99.90;;;;;;5035163;28;20477;-65
2023/07/16 01:35:24;;;;;;;7.73;7.20;;;20.50;99.90;;;;;;5035053;28;20935;-65
2023/07/16 01:37:51;;;;;;;8.50;7.40;;;20.50;99.90;;;;;;5034547;28;20981;-65
2023/07/16 01:40:18;;;;;;;9.10;7.80;;;20.40;99.90;;;;;;5034739;28;20445;-65
2023/07/16 01:42:45;;;;;;;8.30;7.60;;;20.40;99.90;;;;;;5034664;28;20730;-65
2023/07/16 01:45:11;;;;;;;8.07;7.03;;;20.40;99.90;;;;;;5034371;28;20536;-65
2023/07/16 01:48:00;;;;;;;7.40;6.80;;;20.40;99.90;;;;;;5033976;28;20462;-65
2023/07/16 01:50:26;;;;;;;8.73;7.73;;;20.40;99.90;;;;;;5034369;28;20826;-65
2023/07/16 01:52:53;;;;;;;12.03;7.20;;;20.40;99.90;;;;;;5027239;28;20466;-66
2023/07/16 01:55:20;;;;;;;7.23;5.90;;;20.40;99.90;;;;;;5033790;28;20445;-65
2023/07/16 01:57:47;;;;;;;6.83;6.23;;;20.40;99.90;;;;;;5033563;28;20839;-66
2023/07/16 02:00:14;;;;;;;6.40;5.90;;;20.40;99.90;;;;;;5033653;28;20491;-65
2023/07/16 02:02:42;;;;;;;6.17;5.67;;;20.40;99.90;;;;;;5034000;28;20470;-66
2023/07/16 02:05:09;;;;;;;6.90;6.20;;;20.40;99.90;;;;;;4994431;28;20542;-65
2023/07/16 02:07:36;;;;;;;6.53;5.83;;;20.40;99.90;;;;;;4994022;28;20460;-66
2023/07/16 02:10:03;;;;;;;7.00;6.40;;;20.40;99.90;;;;;;4994273;28;20440;-66
2023/07/16 02:12:30;;;;;;;6.17;5.67;;;20.40;99.90;;;;;;4994416;28;20471;-66
2023/07/16 02:14:57;;;;;;;7.97;6.57;;;20.40;99.90;;;;;;4994208;28;20448;-66
2023/07/16 02:17:24;;;;;;;6.40;5.80;;;20.30;99.90;;;;;;4994171;28;20461;-66
2023/07/16 02:19:52;;;;;;;5.70;5.30;;;20.40;99.90;;;;;;4994175;28;20484;-65
2023/07/16 02:22:19;;;;;;;5.57;5.13;;;20.30;99.90;;;;;;4992884;28;20482;-66
2023/07/16 02:24:45;;;;;;;6.00;5.50;;;20.10;99.90;;;;;;4994220;28;20550;-66
2023/07/16 02:27:12;;;;;;;5.57;5.17;;;20.10;99.90;;;;;;4993899;28;20961;-66
2023/07/16 02:29:39;;;;;;;5.70;5.20;;;20.00;99.90;;;;;;4994075;28;20450;-66
2023/07/16 02:32:06;;;;;;;6.63;5.67;;;20.00;99.90;;;;;;4994060;28;20476;-66
2023/07/16 02:34:33;;;;;;;4.47;4.27;;;20.00;99.90;;;;;;4994049;28;20996;-66
2023/07/16 02:37:02;;;;;;;5.70;5.20;;;19.90;99.90;;;;;;4994048;28;20463;-66
2023/07/16 02:39:28;;;;;;;4.87;4.57;;;19.90;99.90;;;;;;4994284;28;20849;-66
2023/07/16 02:41:55;;;;;;;5.23;4.83;;;19.90;99.90;;;;;;4994443;28;20473;-66
2023/07/16 02:44:22;;;;;;;4.63;4.23;;;19.90;99.90;;;;;;4994361;28;20537;-66
2023/07/16 02:46:49;;;;;;;5.60;5.20;;;19.80;99.90;;;;;;4993795;28;20456;-66
2023/07/16 02:49:16;;;;;;;6.20;3.53;;;19.80;99.90;;;;;;4994132;28;20455;-66
2023/07/16 02:51:42;;;;;;;5.57;3.50;;;19.70;99.90;;;;;;5004202;28;20481;-66
2023/07/16 02:54:11;;;;;;;4.40;3.43;;;19.70;99.90;;;;;;5033497;28;20834;-66
2023/07/16 02:56:37;;;;;;;4.70;4.30;;;19.60;99.90;;;;;;5033123;28;20485;-66
2023/07/16 02:59:04;;;;;;;6.47;4.17;;;19.60;99.90;;;;;;5033433;28;20489;-66
2023/07/16 03:01:31;;;;;;;4.43;4.07;;;19.50;99.90;;;;;;5033266;28;20465;-66
2023/07/16 03:03:58;;;;;;;4.40;4.07;;;19.40;99.90;;;;;;5033170;28;20460;-66
2023/07/16 03:06:25;;;;;;;4.27;3.40;;;19.40;99.90;;;;;;5032413;28;20451;-66
2023/07/16 03:08:52;;;;;;;4.80;3.93;;;19.40;99.90;;;;;;5032769;28;20975;-66
2023/07/16 03:11:20;;;;;;;4.20;3.03;;;19.40;99.90;;;;;;5031667;28;20547;-66
2023/07/16 03:13:47;;;;;;;5.13;4.73;;;19.30;99.90;;;;;;5032566;28;20543;-66
2023/07/16 03:16:13;;;;;;;3.97;3.67;;;19.30;99.90;;;;;;5032475;28;20540;-66
2023/07/16 03:18:40;;;;;;;3.70;3.50;;;19.30;99.90;;;;;;5032622;28;20495;-65
2023/07/16 03:21:07;;;;;;;5.27;3.67;;;19.20;99.90;;;;;;5032476;28;20535;-66
2023/07/16 03:23:34;;;;;;;3.97;3.60;;;19.20;99.90;;;;;;5032719;28;20455;-66
2023/07/16 03:26:01;;;;;;;3.30;3.10;;;19.30;99.90;;;;;;5032270;28;20544;-66
2023/07/16 03:28:29;;;;;;;4.33;4.03;;;19.20;99.90;;;;;;5032264;28;20980;-66
2023/07/16 03:30:56;;;;;;;5.37;3.70;;;19.20;99.90;;;;;;5031794;28;20489;-66
2023/07/16 03:33:22;;;;;;;3.53;2.90;;;19.20;99.90;;;;;;5031661;28;21028;-65
2023/07/16 03:35:50;;;;;;;4.37;3.97;;;19.10;99.90;;;;;;5032203;28;20463;-66
2023/07/16 03:38:17;;;;;;;4.50;4.10;;;19.10;99.90;;;;;;5031878;28;20542;-66
2023/07/16 03:40:47;;;;;;;6.20;3.90;;;19.10;99.90;;;;;;5032070;28;20484;-66
2023/07/16 03:43:13;;;;;;;3.63;3.20;;;19.10;99.90;;;;;;5031989;28;20472;-66
2023/07/16 03:45:42;;;;;;;3.50;3.13;;;19.10;99.90;;;;;;5031753;28;20460;-65
2023/07/16 03:48:08;;;;;;;4.97;3.63;;;19.00;99.90;;;;;;5031915;28;20490;-65
2023/07/16 03:50:35;;;;;;;3.70;3.40;;;19.00;99.90;;;;;;5032123;28;20447;-66
2023/07/16 03:53:03;;;;;;;5.00;4.20;;;19.00;99.90;;;;;;5031929;28;20472;-66
2023/07/16 03:55:30;;;;;;;4.20;3.47;;;19.10;99.90;;;;;;5031664;28;20552;-66
2023/07/16 03:57:56;;;;;;;4.67;3.50;;;19.00;99.90;;;;;;5031719;28;20876;-66
2023/07/16 04:00:23;;;;;;;4.37;4.07;;;19.00;99.90;;;;;;5031631;28;20485;-66
2023/07/16 04:02:52;;;;;;;4.03;3.60;;;19.00;99.90;;;;;;5031741;28;20472;-66
2023/07/16 04:05:19;;;;;;;6.57;3.53;;;19.00;99.90;;;;;;5031976;28;20458;-66
2023/07/16 04:07:46;;;;;;;4.30;3.07;;;19.00;99.90;;;;;;5031595;28;20543;-66
2023/07/16 04:10:12;;;;;;;3.40;3.10;;;19.00;99.90;;;;;;5031611;28;20455;-66
2023/07/16 04:12:39;;;;;;;4.43;4.03;;;19.00;99.90;;;;;;5031527;28;20476;-65
2023/07/16 04:15:09;;;;;;;8.47;4.00;;;18.90;99.90;;;;;;5031587;28;21033;-66
2023/07/16 04:17:36;;;;;;;4.07;3.67;;;19.00;99.90;;;;;;5031205;28;20500;-66
2023/07/16 04:20:06;;;;;;;9.03;3.90;;;19.00;99.90;;;;;;5031562;28;20970;-67
2023/07/16 04:22:33;;;;;;;4.40;4.00;;;19.10;99.90;;;;;;5031432;28;20484;-66
2023/07/16 04:25:00;;;;;;;11.63;4.70;;;19.10;99.90;;;;;;5031283;28;20455;-66
2023/07/16 04:27:27;;;;;;;4.90;4.20;;;19.10;99.90;;;;;;5031091;28;20451;-66
2023/07/16 04:29:54;;;;;;;3.37;3.00;;;19.10;99.90;;;;;;5031321;28;20541;-66
2023/07/16 04:32:21;;;;;;;4.67;3.50;;;19.10;99.90;;;;;;5031653;28;20579;-66
2023/07/16 04:34:47;;;;;;;5.77;3.77;;;19.10;99.90;;;;;;5031297;28;20460;-66
2023/07/16 04:37:15;;;;;;;4.00;3.30;;;19.10;99.90;;;;;;5030931;28;20451;-66
2023/07/16 04:39:42;;;;;;;4.20;3.50;;;19.10;99.90;;;;;;5031508;28;20579;-67
2023/07/16 04:42:09;;;;;;;6.50;4.90;;;19.10;99.90;;;;;;5031606;28;20468;-66
2023/07/16 04:44:36;;;;;;;4.00;3.47;;;19.10;99.90;;;;;;5031450;28;20550;-66
2023/07/16 04:47:03;;;;;;;6.03;3.70;;;19.20;99.90;;;;;;5034875;28;20897;-66
2023/07/16 04:49:30;;;;;;;4.20;3.90;;;19.10;99.90;;;;;;5035167;28;20821;-66
2023/07/16 04:51:56;;;;;;;6.17;4.00;;;19.00;99.90;;;;;;5034658;28;20471;-66
2023/07/16 04:54:25;;;;;;;6.47;3.80;;;19.00;99.90;;;;;;5035549;28;20511;-66
2023/07/16 04:56:51;;;;;;;9.80;4.37;;;19.00;99.90;;;;;;5035365;28;20539;-66
2023/07/16 04:59:18;;;;;;;3.60;3.30;;;19.00;99.90;;;;;;5035466;28;21042;-66
2023/07/16 05:01:45;;;;;;;3.60;3.23;;;19.00;99.90;;;;;;5022009;28;20477;-66
2023/07/16 05:04:12;;;;;;;7.60;4.07;;;18.90;99.90;;;;;;5015759;28;20461;-66
2023/07/16 05:06:39;;;;;;;4.63;3.60;;;18.90;99.90;;;;;;5015552;28;20892;-66
2023/07/16 05:09:05;;;;;;;6.90;4.83;;;18.80;99.90;;;;;;5015657;28;20456;-66
2023/07/16 05:11:34;;;;;;;3.43;3.13;;;18.80;99.90;;;;;;5015154;28;20478;-66
2023/07/16 05:14:01;;;;;;;5.20;3.47;;;18.70;99.90;;;;;;5015840;28;20450;-66
2023/07/16 05:16:27;;;;;;;6.37;5.20;;;18.70;99.90;;;;;;5015015;28;20457;-66
2023/07/16 05:18:54;;;;;;;4.47;3.90;;;18.80;99.90;;;;;;5015221;28;20456;-66
2023/07/16 05:21:21;;;;;;;6.23;5.30;;;18.80;99.90;;;;;;5014828;28;20492;-66
2023/07/16 05:23:48;;;;;;;5.07;4.30;;;18.80;99.90;;;;;;5015218;28;20551;-66
2023/07/16 05:26:15;;;;;;;7.23;4.13;;;18.80;99.90;;;;;;5014501;28;20544;-66
2023/07/16 05:28:43;;;;;;;4.30;3.90;;;18.80;99.90;;;;;;5014836;28;20998;-66
2023/07/16 05:31:10;;;;;;;4.03;3.70;;;18.80;99.90;;;;;;5014325;28;20541;-66
2023/07/16 05:33:36;;;;;;;6.50;4.67;;;18.80;99.90;;;;;;5014659;28;20449;-66
2023/07/16 05:36:04;;;;;;;4.60;4.13;;;18.80;99.90;;;;;;5014592;28;20460;-66
2023/07/16 05:38:30;;;;;;;8.00;4.00;;;18.80;99.90;;;;;;5014773;28;20446;-67
2023/07/16 05:41:02;;;;;;;7.17;3.90;;;18.80;99.90;;;;;;5014769;28;20571;-66
2023/07/16 05:43:29;;;;;;;14.83;4.00;;;18.80;99.90;;;;;;5014377;28;20456;-66
2023/07/16 05:45:57;;;;;;;7.20;5.10;;;18.80;99.90;;;;;;5013875;28;20457;-66
2023/07/16 05:48:24;;;;;;;5.70;4.67;;;18.80;99.90;;;;;;5014526;28;20449;-66
2023/07/16 05:50:51;;;;;;;4.20;3.80;;;18.90;99.90;;;;;;5014812;28;20446;-66
2023/07/16 05:53:18;;;;;;;5.70;3.80;;;18.90;99.90;;;;;;5014349;28;20549;-66
2023/07/16 05:55:45;;;;;;;5.67;3.87;;;18.90;99.90;;;;;;5014691;28;20536;-66
2023/07/16 05:58:12;;;;;;;5.00;3.90;;;19.00;99.90;;;;;;5014121;28;20457;-66
2023/07/16 06:00:39;;;;;;;4.27;3.57;;;19.00;99.90;;;;;;5014466;28;20486;-66
2023/07/16 06:03:07;;;;;;;3.70;3.37;;;19.10;99.90;;;;;;5014297;28;20541;-66
2023/07/16 06:05:36;;;;;;;7.60;3.23;;;19.10;99.90;;;;;;5014277;28;20454;-66
2023/07/16 06:08:03;;;;;;;4.70;3.33;;;19.10;99.90;;;;;;5014260;28;20465;-66
2023/07/16 06:10:30;;;;;;;5.60;4.10;;;19.20;99.90;;;;;;5014138;28;20453;-66
2023/07/16 06:12:57;;;;;;;4.03;3.63;;;19.30;99.90;;;;;;5014541;28;20479;-66
2023/07/16 06:15:24;;;;;;;4.73;3.60;;;19.30;99.90;;;;;;5014299;28;20540;-66
2023/07/16 06:17:51;;;;;;;4.40;3.67;;;19.40;99.90;;;;;;5014004;28;20970;-67
2023/07/16 06:20:20;;;;;;;3.97;3.63;;;19.40;99.90;;;;;;5014386;28;21025;-66
2023/07/16 06:22:47;;;;;;;3.67;3.30;;;19.30;99.90;;;;;;5014139;28;20489;-66
2023/07/16 06:25:13;;;;;;;5.50;3.40;;;19.30;99.90;;;;;;5013645;28;20829;-67
2023/07/16 06:27:40;;;;;;;6.13;4.73;;;19.40;99.90;;;;;;5013734;28;20537;-67
2023/07/16 06:30:08;;;;;;;3.87;3.30;;;19.40;99.90;;;;;;5013291;28;20450;-66
2023/07/16 06:32:35;;;;;;;4.60;3.47;;;19.50;99.90;;;;;;5013732;28;20470;-67
2023/07/16 06:35:02;;;;;;;3.63;3.33;;;19.50;99.90;;;;;;5013965;28;20454;-66
2023/07/16 06:37:30;;;;;;;3.93;3.63;;;19.50;99.90;;;;;;5013379;28;20821;-66
2023/07/16 06:39:57;;;;;;;5.60;3.50;;;19.40;99.90;;;;;;5013327;28;21044;-67
2023/07/16 06:42:23;;;;;;;5.10;3.67;;;19.40;99.90;;;;;;5013775;28;20864;-67
2023/07/16 06:44:50;;;;;;;4.00;3.47;;;19.40;99.90;;;;;;5011031;28;20454;-66
2023/07/16 06:47:17;;;;;;;6.67;4.50;;;19.50;99.90;;;;;;5013449;28;20560;-66
2023/07/16 06:49:44;;;;;;;4.83;3.40;;;19.50;99.90;;;;;;5013552;28;20472;-66
2023/07/16 06:52:20;;;;;;;3.40;3.10;;;19.60;99.90;;;;;;5012544;28;20466;-67
2023/07/16 06:54:48;;;;;;;4.50;2.40;;;19.40;99.90;;;;;;5013618;28;20455;-66
2023/07/16 06:57:15;;;;;;;4.20;3.70;;;19.40;99.90;;;;;;5013018;28;20532;-66
2023/07/16 06:59:42;;;;;;;5.10;3.57;;;19.30;99.90;;;;;;5013406;28;20939;-66
2023/07/16 07:02:09;;;;;;;6.87;3.23;;;19.30;99.90;;;;;;5013759;28;20478;-67
2023/07/16 07:04:35;;;;;;;4.50;3.03;;;19.30;99.90;;;;;;5013479;28;20528;-67
2023/07/16 07:07:02;;;;;;;4.90;3.43;;;19.20;99.90;;;;;;5013119;28;20537;-67
2023/07/16 07:09:29;;;;;;;5.73;3.50;;;19.20;99.90;;;;;;5012336;28;20541;-67
2023/07/16 07:11:58;;;;;;;4.07;2.73;;;19.30;99.90;;;;;;5013112;28;20925;-67
2023/07/16 07:14:25;;;;;;;4.53;3.20;;;19.40;99.90;;;;;;5012865;28;20461;-67
2023/07/16 07:16:51;;;;;;;7.00;4.53;;;19.50;99.90;;;;;;5012622;28;20445;-67
2023/07/16 07:19:18;;;;;;;4.63;3.07;;;19.50;99.90;;;;;;5013214;28;20445;-67
2023/07/16 07:21:45;;;;;;;9.40;3.40;;;19.50;99.90;;;;;;5013273;28;21054;-67
2023/07/16 07:24:12;;;;;;;6.77;5.37;;;19.50;99.90;;;;;;5011616;28;20489;-67
2023/07/16 07:26:39;;;;;;;6.90;3.90;;;19.50;99.90;;;;;;5012308;28;20995;-67
2023/07/16 07:29:08;;;;;;;3.60;3.30;;;19.50;99.90;;;;;;5011683;28;20551;-67
2023/07/16 07:31:35;;;;;;;4.40;4.10;;;19.60;99.90;;;;;;5012649;28;20509;-67
2023/07/16 07:34:02;;;;;;;3.43;3.13;;;19.70;99.90;;;;;;5007504;28;20501;-66
2023/07/16 07:36:29;;;;;;;6.03;3.57;;;19.90;99.90;;;;;;5006252;28;20465;-66
2023/07/16 07:38:56;;;;;;;5.30;3.70;;;20.00;99.90;;;;;;5005876;28;20450;-67
2023/07/16 07:41:23;;;;;;;3.70;3.03;;;20.20;99.90;;;;;;5000772;28;21320;-67
2023/07/16 07:43:50;;;;;;;3.17;2.77;;;20.20;99.90;;;;;;5002187;28;20645;-67
2023/07/16 07:46:18;;;;;;;3.40;3.10;;;20.40;99.90;;;;;;5010099;28;20454;-67
2023/07/16 07:48:45;;;;;;;6.63;3.70;;;20.50;99.90;;;;;;5012249;28;20461;-67
2023/07/16 07:51:12;;;;;;;5.90;3.50;;;20.50;99.90;;;;;;5005636;28;20794;-66
2023/07/16 07:53:39;;;;;;;3.03;2.80;;;20.60;99.90;;;;;;5009596;28;20460;-67
2023/07/16 07:56:06;;;;;;;3.47;3.17;;;20.60;99.90;;;;;;5002735;28;20455;-67
2023/07/16 07:58:33;;;;;;;3.00;2.80;;;20.60;99.90;;;;;;4995083;28;20951;-68
2023/07/16 08:01:06;;;;;;;3.30;3.00;;;20.60;99.90;;;;;;5006837;28;20482;-68
2023/07/16 08:03:35;;;;;;;3.20;2.87;;;20.80;99.90;;;;;;5010982;28;20457;-67
2023/07/16 08:06:02;;;;;;;5.90;2.97;;;20.90;99.90;;;;;;5006379;28;20442;-67
2023/07/16 08:08:29;;;;;;;5.37;3.00;;;21.10;99.90;;;;;;5011676;28;20842;-68
2023/07/16 08:10:56;;;;;;;3.17;2.43;;;21.10;99.90;;;;;;5003967;28;20540;-68
2023/07/16 08:13:23;;;;;;;3.67;2.87;;;21.20;99.90;;;;;;4993725;28;20535;-67
2023/07/16 08:15:50;;;;;;;3.00;2.80;;;21.30;99.90;;;;;;5010200;28;20848;-66
2023/07/16 08:18:17;;;;;;;2.93;2.73;;;21.30;99.90;;;;;;5007379;28;20895;-67
2023/07/16 08:20:45;;;;;;;3.73;2.90;;;21.40;99.90;;;;;;5007633;28;20483;-68
2023/07/16 08:23:12;;;;;;;4.80;4.50;;;21.40;99.90;;;;;;5000248;28;20933;-68
2023/07/16 08:25:39;;;;;;;7.07;3.10;;;21.60;99.90;;;;;;5011761;28;20460;-67
2023/07/16 08:28:07;;;;;;;5.70;3.00;;;21.70;99.90;;;;;;4996728;28;20826;-69
2023/07/16 08:30:34;;;;;;;3.80;2.77;;;21.80;99.90;;;;;;5011026;28;20537;-68
2023/07/16 08:33:01;;;;;;;4.47;3.47;;;22.00;99.90;;;;;;5004029;28;20487;-67
2023/07/16 08:35:28;;;;;;;3.37;2.90;;;22.10;99.90;;;;;;5010749;28;20881;-68
2023/07/16 08:37:56;;;;;;;3.50;2.83;;;22.10;99.90;;;;;;5008308;28;20454;-68
2023/07/16 08:40:23;;;;;;;5.60;3.20;;;22.10;99.90;;;;;;5003069;28;20529;-68
2023/07/16 08:42:50;;;;;;;4.50;3.70;;;22.10;99.90;;;;;;5009913;28;20940;-68
2023/07/16 08:45:20;;;;;;;6.27;2.67;;;21.90;99.90;;;;;;5000414;28;20853;-67
2023/07/16 08:47:46;;;;;;;3.13;2.83;;;21.70;99.90;;;;;;4996003;28;20835;-68
2023/07/16 08:50:14;;;;;;;5.37;2.73;;;21.60;99.90;;;;;;5010145;28;20517;-67
2023/07/16 08:52:41;;;;;;;2.50;2.30;;;21.50;99.90;;;;;;5010613;28;20514;-69
2023/07/16 08:55:09;;;;;;;4.63;2.60;;;21.50;99.90;;;;;;5010647;28;20455;-66
2023/07/16 08:57:37;;;;;;;2.90;2.70;;;21.50;99.90;;;;;;5010134;28;21020;-68
2023/07/16 09:00:05;;;;;;;3.60;3.23;;;21.60;99.90;;;;;;4992446;28;20458;-68
2023/07/16 09:02:32;;;;;;;4.33;2.67;;;21.60;99.90;;;;;;5005584;28;20489;-68
2023/07/16 09:05:00;;;;;;;5.07;2.80;;;21.70;99.90;;;;;;4994026;28;20531;-68
2023/07/16 09:07:28;;;;;;;2.30;2.13;;;21.90;99.90;;;;;;4999415;28;20459;-69
2023/07/16 09:09:59;;;;;;;4.03;2.40;;;22.10;99.90;;;;;;4997570;28;20535;-68
2023/07/16 09:12:29;;;;;;;4.93;2.80;;;22.30;99.90;;;;;;5005005;28;20528;-67
2023/07/16 09:14:56;;;;;;;3.73;2.70;;;22.30;99.90;;;;;;4993785;28;21031;-67
2023/07/16 09:17:23;;;;;;;4.10;3.10;;;22.30;99.90;;;;;;5004956;28;20448;-67
2023/07/16 09:19:51;;;;;;;4.73;3.30;;;22.30;99.90;;;;;;5000212;28;20461;-67
2023/07/16 09:22:19;;;;;;;5.83;2.83;;;22.10;99.90;;;;;;5004248;28;20492;-68
2023/07/16 09:24:46;;;;;;;3.57;2.70;;;22.10;99.90;;;;;;4993716;28;20458;-69
2023/07/16 09:27:14;;;;;;;4.40;2.40;;;22.20;99.90;;;;;;5004810;28;20883;-68
2023/07/16 09:29:42;;;;;;;2.90;2.13;;;22.30;99.90;;;;;;4999903;28;20462;-68
2023/07/16 09:32:09;;;;;;;3.70;2.53;;;22.30;99.60;;;;;;5004687;28;20461;-68
2023/07/16 09:34:36;;;;;;;4.60;3.33;;;22.30;99.90;;;;;;5006458;28;20457;-67
2023/07/16 09:37:05;;;;;;;5.17;2.80;;;22.30;99.90;;;;;;5012990;28;20453;-68
2023/07/16 09:39:33;;;;;;;2.70;2.50;;;22.40;99.90;;;;;;5013849;28;20541;-68
2023/07/16 09:42:00;;;;;;;3.30;2.77;;;22.60;99.90;;;;;;5002329;28;20523;-68
2023/07/16 09:44:27;;;;;;;2.80;2.27;;;22.80;99.90;;;;;;5009160;28;20968;-67
2023/07/16 09:46:56;;;;;;;3.43;2.33;;;23.10;99.90;;;;;;5010611;28;20492;-69
2023/07/16 09:49:23;;;;;;;3.77;2.13;;;23.10;99.90;;;;;;5007016;28;20525;-68
2023/07/16 09:51:53;;;;;;;4.90;3.30;;;23.20;98.30;;;;;;5003889;28;20505;-68
2023/07/16 09:54:21;;;;;;;4.93;2.70;;;23.30;99.90;;;;;;4999998;28;20454;-68
2023/07/16 09:56:51;;;;;;;4.00;2.37;;;23.40;98.60;;;;;;5009874;28;20821;-68
2023/07/16 09:59:24;;;;;;;5.20;2.60;;;23.40;96.70;;;;;;4999647;28;20449;-68
2023/07/16 10:01:51;;;;;;;4.27;2.50;;;23.50;98.00;;;;;;5003105;28;20485;-68
2023/07/16 10:04:20;;;;;;;3.80;2.60;;;23.50;97.50;;;;;;5007720;28;20450;-69
2023/07/16 10:06:52;;;;;;;4.67;2.87;;;23.60;97.30;;;;;;5012847;28;20454;-68
2023/07/16 10:09:33;;;;;;;4.37;2.70;;;23.60;99.60;;;;;;5007259;28;20451;-69
2023/07/16 10:12:19;;;;;;;2.93;2.10;;;23.50;99.40;;;;;;5004949;28;20470;-69
2023/07/16 10:14:47;;;;;;;5.57;2.60;;;23.50;97.70;;;;;;4997083;28;20944;-68
2023/07/16 10:17:16;;;;;;;4.07;3.50;;;23.30;96.20;;;;;;5007683;28;20919;-69
2023/07/16 10:19:58;;;;;;;2.97;2.87;;;23.10;95.80;;;;;;5002542;28;20453;-68
2023/07/16 10:22:36;;;;;;;4.27;3.40;;;22.90;96.80;;;;;;5012624;28;20489;-69
2023/07/16 10:25:04;;;;;;;4.93;3.30;;;22.80;97.30;;;;;;4997195;28;20453;-68
2023/07/16 10:27:32;;;;;;;5.00;3.00;;;22.90;99.20;;;;;;5005252;28;20489;-69
2023/07/16 10:30:02;;;;;;;6.27;3.30;;;22.80;96.80;;;;;;5004634;28;20461;-68
2023/07/16 10:32:30;;;;;;;2.90;2.70;;;22.80;95.50;;;;;;4997597;28;20478;-68
2023/07/16 10:34:59;;;;;;;3.13;2.80;;;22.70;96.30;;;;;;5009326;28;20447;-67
2023/07/16 10:37:27;;;;;;;3.70;2.80;;;22.70;97.40;;;;;;4999724;28;20460;-68
2023/07/16 10:39:55;;;;;;;2.70;2.27;;;22.70;95.20;;;;;;5002329;28;20456;-68
2023/07/16 10:42:23;;;;;;;3.07;2.73;;;22.90;96.70;;;;;;5007113;28;20490;-67
2023/07/16 10:44:52;;;;;;;3.47;2.63;;;23.00;97.20;;;;;;4995615;28;20451;-68
2023/07/16 10:47:21;;;;;;;3.43;2.83;;;23.30;94.80;;;;;;5006154;28;20963;-69
2023/07/16 10:49:47;;;;;;;6.70;3.40;;;23.40;93.60;;;;;;5002713;28;20450;-68
2023/07/16 10:52:16;;;;;;;3.10;2.80;;;23.50;94.00;;;;;;4999220;28;20578;-68
2023/07/16 10:54:43;;;;;;;5.60;3.27;;;23.50;94.90;;;;;;5008869;28;21010;-69
2023/07/16 10:57:10;;;;;;;3.57;2.67;;;23.60;96.60;;;;;;4997177;28;20534;-69
2023/07/16 10:59:39;;;;;;;5.83;3.53;;;23.70;96.10;;;;;;5011797;28;20450;-68
2023/07/16 11:02:09;;;;;;;3.57;2.40;;;23.80;94.30;;;;;;5000204;28;20498;-69
2023/07/16 11:04:36;;;;;;;3.70;3.17;;;24.10;94.40;;;;;;5008921;28;20536;-69
2023/07/16 11:07:09;;;;;;;6.13;3.20;;;24.20;95.90;;;;;;4996223;28;20480;-68
2023/07/16 11:09:43;;;;;;;2.83;2.47;;;24.30;95.30;;;;;;5012167;28;20457;-69
2023/07/16 11:12:10;;;;;;;4.20;3.03;;;24.30;93.00;;;;;;4999294;28;20467;-69
2023/07/16 11:14:38;;;;;;;4.03;3.00;;;24.50;95.40;;;;;;5008865;28;20824;-69
2023/07/16 11:17:07;;;;;;;4.30;3.27;;;24.30;92.30;;;;;;4995951;28;20966;-68
2023/07/16 11:19:34;;;;;;;5.57;3.13;;;24.30;95.20;;;;;;5004122;28;20858;-68
2023/07/16 11:22:02;;;;;;;5.63;2.90;;;24.30;92.50;;;;;;4992058;28;21235;-69
2023/07/16 11:24:29;;;;;;;4.67;2.63;;;24.20;93.10;;;;;;5007396;28;20447;-69
2023/07/16 11:26:57;;;;;;;3.00;2.67;;;24.20;93.40;;;;;;4995416;28;20451;-68
2023/07/16 11:29:25;;;;;;;6.13;3.30;;;24.40;93.30;;;;;;5004989;28;20466;-68
2023/07/16 11:31:52;;;;;;;4.50;3.10;;;24.50;92.20;;;;;;5002242;28;20470;-69
2023/07/16 11:34:21;;;;;;;3.43;2.83;;;24.60;92.00;;;;;;4997662;28;20832;-67
2023/07/16 11:36:49;;;;;;;3.70;3.27;;;24.70;90.80;;;;;;5008746;28;20462;-68
2023/07/16 11:39:16;;;;;;;3.83;2.90;;;24.60;91.20;;;;;;5011182;28;20452;-69
2023/07/16 11:41:43;;;;;;;4.50;3.63;;;24.60;93.40;;;;;;5007762;28;20569;-68
2023/07/16 11:44:13;;;;;;;4.70;3.10;;;24.60;94.00;;;;;;5011638;28;20469;-69
2023/07/16 11:46:39;;;;;;;3.43;3.20;;;24.60;92.60;;;;;;4995233;28;20531;-69
2023/07/16 11:49:06;;;;;;;3.30;3.00;;;24.60;94.00;;;;;;5007363;28;20894;-69
2023/07/16 11:51:33;;;;;;;4.77;3.80;;;24.60;93.70;;;;;;4999635;28;20471;-68
2023/07/16 11:54:00;;;;;;;4.50;3.00;;;24.80;93.00;;;;;;4999283;28;20538;-69
2023/07/16 11:56:27;;;;;;;6.70;2.80;;;24.90;94.30;;;;;;5003526;28;20822;-69
2023/07/16 11:58:53;;;;;;;5.47;3.20;;;25.00;92.90;;;;;;4996357;28;20471;-69
2023/07/16 12:01:22;;;;;;;3.67;3.40;;;25.10;91.50;;;;;;4997075;28;20457;-69
2023/07/16 12:03:49;;;;;;;3.37;2.87;;;25.00;91.00;;;;;;5003500;28;20533;-68
2023/07/16 12:06:15;;;;;;;3.90;3.57;;;25.00;92.70;;;;;;4999035;28;20460;-68
2023/07/16 12:08:42;;;;;;;4.57;2.77;;;25.10;93.30;;;;;;4995239;28;20459;-68
2023/07/16 12:11:09;;;;;;;3.33;3.07;;;25.20;92.20;;;;;;5009932;28;20452;-69
2023/07/16 12:13:36;;;;;;;4.57;2.93;;;25.30;93.20;;;;;;5009558;28;20464;-69
2023/07/16 12:16:03;;;;;;;3.10;2.60;;;25.50;92.10;;;;;;5009860;28;20465;-67
2023/07/16 12:18:31;;;;;;;7.90;3.50;;;25.60;92.20;;;;;;5010439;28;20460;-67
2023/07/16 12:20:58;;;;;;;4.30;3.90;;;25.70;88.10;;;;;;5007754;28;20482;-69
2023/07/16 12:23:25;;;;;;;4.73;3.30;;;25.80;89.10;;;;;;5010184;28;20494;-69
2023/07/16 12:25:52;;;;;;;4.37;3.93;;;25.90;86.90;;;;;;5006473;28;20545;-69
2023/07/16 12:28:18;;;;;;;3.53;3.20;;;26.10;91.10;;;;;;5009433;28;20480;-69
2023/07/16 12:30:45;;;;;;;3.43;2.77;;;26.20;91.40;;;;;;4995415;28;20451;-69
2023/07/16 12:33:12;;;;;;;4.10;3.10;;;26.00;86.50;;;;;;5010041;28;20585;-68
2023/07/16 12:35:40;;;;;;;3.43;2.67;;;25.90;90.60;;;;;;5010852;28;20834;-68
2023/07/16 12:38:07;;;;;;;4.07;3.00;;;25.80;86.70;;;;;;5008826;28;20460;-69
2023/07/16 12:40:39;;;;;;;3.90;2.80;;;25.80;87.80;;;;;;5010039;28;20464;-70
2023/07/16 12:43:06;;;;;;;4.00;2.93;;;25.90;91.30;;;;;;5010650;28;20526;-69
2023/07/16 12:45:33;;;;;;;4.03;2.70;;;26.20;90.00;;;;;;5009940;28;20468;-69
2023/07/16 12:48:00;;;;;;;3.40;2.90;;;26.30;84.60;;;;;;5007363;28;20460;-69